AAL2520 KRDU-EGLL
Flight info
| Callsign | AAL2520 |
|---|---|
| Flight time | N/A |
| Altitude | 37000 |
| Route | BEXGO5 BOUSY DCT RIC DCT BBOBO Q22 RBV Q430 ACK DCT BRADD N175G PORTI/M083F400 DCT 47N050W 49N040W 51N030W 53N020W DCT MALOT DCT GISTI/N0478F410 DCT ENJEX DCT AVZAC DCT INFEC DCT JETZI DCT AMFUL DCT ORZEB/N0394F230 P2 SIRIC |
| Aircraft | B772/H-SDE2E3FGHIJ5LORVWXY/LB1D1 |
Departure
| Time | 2026-04-29 04:42 |
|---|---|
| Airport | Raleigh-Durham International Airport (KRDU) |
Arrival
| Time | N/A |
|---|---|
| Airport | London Heathrow Airport (EGLL) |
| Time | Latitude | Longitude | Altitude | Speed | Heading |
|---|---|---|---|---|---|
| 2026-04-29 04:07 | 35.88001 | -78.79134 | 431 ft | 0 kts | 184° |
| 2026-04-29 04:26 | 35.87999 | -78.79134 | 430 ft | 2 kts | 184° |
| 2026-04-29 04:27 | 35.88008 | -78.79132 | 430 ft | 4 kts | 140° |
| 2026-04-29 04:27 | 35.88000 | -78.79147 | 430 ft | 4 kts | 94° |
| 2026-04-29 04:27 | 35.88007 | -78.79177 | 431 ft | 4 kts | 134° |
| 2026-04-29 04:27 | 35.88022 | -78.79191 | 428 ft | 4 kts | 86° |
| 2026-04-29 04:28 | 35.88028 | -78.79183 | 431 ft | 0 kts | 45° |
| 2026-04-29 04:33 | 35.88032 | -78.79178 | 419 ft | 4 kts | 45° |
| 2026-04-29 04:34 | 35.88062 | -78.79142 | 420 ft | 6 kts | 45° |
| 2026-04-29 04:34 | 35.88093 | -78.79103 | 420 ft | 6 kts | 45° |
| 2026-04-29 04:34 | 35.88130 | -78.79052 | 422 ft | 9 kts | 46° |
| 2026-04-29 04:34 | 35.88172 | -78.79001 | 419 ft | 9 kts | 37° |
| 2026-04-29 04:35 | 35.88230 | -78.79000 | 422 ft | 9 kts | 356° |
| 2026-04-29 04:35 | 35.88292 | -78.78958 | 425 ft | 12 kts | 42° |
| 2026-04-29 04:35 | 35.88353 | -78.78885 | 424 ft | 12 kts | 45° |
| 2026-04-29 04:35 | 35.88413 | -78.78811 | 430 ft | 12 kts | 45° |
| 2026-04-29 04:36 | 35.88473 | -78.78737 | 419 ft | 12 kts | 45° |
| 2026-04-29 04:36 | 35.88533 | -78.78662 | 423 ft | 12 kts | 45° |
| 2026-04-29 04:36 | 35.88593 | -78.78588 | 419 ft | 12 kts | 45° |
| 2026-04-29 04:36 | 35.88653 | -78.78514 | 417 ft | 12 kts | 45° |
| 2026-04-29 04:37 | 35.88713 | -78.78440 | 424 ft | 12 kts | 45° |
| 2026-04-29 04:37 | 35.88773 | -78.78366 | 424 ft | 12 kts | 45° |
| 2026-04-29 04:37 | 35.88833 | -78.78292 | 420 ft | 12 kts | 45° |
| 2026-04-29 04:37 | 35.88894 | -78.78218 | 420 ft | 12 kts | 45° |
| 2026-04-29 04:38 | 35.88953 | -78.78144 | 430 ft | 12 kts | 45° |
| 2026-04-29 04:38 | 35.89013 | -78.78069 | 422 ft | 12 kts | 45° |
| 2026-04-29 04:38 | 35.89073 | -78.77995 | 430 ft | 12 kts | 45° |
| 2026-04-29 04:38 | 35.89133 | -78.77921 | 426 ft | 12 kts | 45° |
| 2026-04-29 04:39 | 35.89193 | -78.77846 | 430 ft | 12 kts | 45° |
| 2026-04-29 04:39 | 35.89253 | -78.77772 | 419 ft | 12 kts | 45° |
| 2026-04-29 04:39 | 35.89300 | -78.77742 | 420 ft | 8 kts | 351° |
| 2026-04-29 04:39 | 35.89345 | -78.77782 | 420 ft | 8 kts | 317° |
| 2026-04-29 04:40 | 35.89355 | -78.77828 | 418 ft | 4 kts | 246° |
| 2026-04-29 04:40 | 35.89340 | -78.77852 | 423 ft | 2 kts | 227° |
| 2026-04-29 04:40 | 35.89336 | -78.77856 | 430 ft | 0 kts | 226° |
| 2026-04-29 04:41 | 35.89281 | -78.77926 | 424 ft | 37 kts | 226° |
| 2026-04-29 04:41 | 35.88933 | -78.78357 | 417 ft | 103 kts | 225° |
| 2026-04-29 04:41 | 35.88286 | -78.79154 | 423 ft | 159 kts | 225° |
| 2026-04-29 04:41 | 35.87457 | -78.80173 | 803 ft | 174 kts | 224° |
| 2026-04-29 04:42 | 35.86585 | -78.81250 | 1374 ft | 182 kts | 224° |
| 2026-04-29 04:42 | 35.85671 | -78.82370 | 1926 ft | 189 kts | 223° |
| 2026-04-29 04:42 | 35.84699 | -78.83545 | 2216 ft | 203 kts | 223° |
| 2026-04-29 04:42 | 35.83795 | -78.84894 | 2529 ft | 212 kts | 244° |
| 2026-04-29 04:43 | 35.83545 | -78.86706 | 2884 ft | 217 kts | 278° |
| 2026-04-29 04:43 | 35.84127 | -78.88358 | 3558 ft | 211 kts | 310° |
| 2026-04-29 04:43 | 35.85337 | -78.89397 | 3919 ft | 219 kts | 343° |
| 2026-04-29 04:43 | 35.86862 | -78.89404 | 4283 ft | 226 kts | 21° |
| 2026-04-29 04:44 | 35.88193 | -78.88293 | 4454 ft | 240 kts | 44° |
| 2026-04-29 04:44 | 35.89436 | -78.86799 | 4630 ft | 259 kts | 44° |
| 2026-04-29 04:44 | 35.90747 | -78.85217 | 5078 ft | 268 kts | 44° |
| 2026-04-29 04:44 | 35.92090 | -78.83594 | 5643 ft | 272 kts | 43° |
| 2026-04-29 04:45 | 35.93448 | -78.81954 | 6309 ft | 273 kts | 43° |
| 2026-04-29 04:45 | 35.94806 | -78.80317 | 6961 ft | 274 kts | 42° |
| 2026-04-29 04:45 | 35.96174 | -78.78671 | 7514 ft | 277 kts | 42° |
| 2026-04-29 04:45 | 35.97563 | -78.77008 | 8092 ft | 279 kts | 41° |
| 2026-04-29 04:46 | 35.98965 | -78.75334 | 8651 ft | 282 kts | 41° |
| 2026-04-29 04:46 | 36.00383 | -78.73642 | 9208 ft | 284 kts | 41° |
| 2026-04-29 04:46 | 36.01812 | -78.71936 | 9746 ft | 287 kts | 41° |
| 2026-04-29 04:46 | 36.03256 | -78.70212 | 10244 ft | 291 kts | 41° |
| 2026-04-29 04:47 | 36.04720 | -78.68463 | 10772 ft | 295 kts | 41° |
| 2026-04-29 04:47 | 36.06202 | -78.66691 | 11343 ft | 298 kts | 41° |
| 2026-04-29 04:47 | 36.07701 | -78.64899 | 11954 ft | 301 kts | 40° |
| 2026-04-29 04:47 | 36.09219 | -78.63087 | 12551 ft | 308 kts | 40° |
| 2026-04-29 04:48 | 36.10821 | -78.61181 | 12730 ft | 331 kts | 40° |
| 2026-04-29 04:48 | 36.12537 | -78.59134 | 12920 ft | 354 kts | 41° |
| 2026-04-29 04:48 | 36.14338 | -78.56977 | 13424 ft | 365 kts | 41° |
| 2026-04-29 04:48 | 36.16184 | -78.54767 | 14056 ft | 374 kts | 40° |
| 2026-04-29 04:49 | 36.18060 | -78.52515 | 14805 ft | 378 kts | 40° |
| 2026-04-29 04:49 | 36.19953 | -78.50237 | 15584 ft | 381 kts | 40° |
| 2026-04-29 04:49 | 36.21839 | -78.47968 | 16325 ft | 385 kts | 40° |
| 2026-04-29 04:49 | 36.23774 | -78.45644 | 17038 ft | 390 kts | 40° |
| 2026-04-29 04:50 | 36.25732 | -78.43289 | 17734 ft | 395 kts | 39° |
| 2026-04-29 04:50 | 36.27718 | -78.40916 | 18424 ft | 398 kts | 38° |
| 2026-04-29 04:50 | 36.29850 | -78.38716 | 19104 ft | 400 kts | 32° |
| 2026-04-29 04:50 | 36.32097 | -78.36671 | 19799 ft | 402 kts | 30° |
| 2026-04-29 04:51 | 36.34387 | -78.34646 | 20469 ft | 406 kts | 29° |
| 2026-04-29 04:51 | 36.36694 | -78.32583 | 21109 ft | 411 kts | 30° |
| 2026-04-29 04:51 | 36.39015 | -78.30468 | 21738 ft | 416 kts | 30° |
| 2026-04-29 04:51 | 36.41348 | -78.28310 | 22356 ft | 421 kts | 30° |
| 2026-04-29 04:52 | 36.43699 | -78.26118 | 22963 ft | 425 kts | 30° |
| 2026-04-29 04:52 | 36.46073 | -78.23897 | 23552 ft | 429 kts | 29° |
| 2026-04-29 04:52 | 36.48471 | -78.21653 | 24129 ft | 433 kts | 29° |
| 2026-04-29 04:52 | 36.50889 | -78.19391 | 24708 ft | 437 kts | 29° |
| 2026-04-29 04:53 | 36.53322 | -78.17106 | 25269 ft | 440 kts | 29° |
| 2026-04-29 04:53 | 36.55775 | -78.14795 | 25779 ft | 444 kts | 28° |
| 2026-04-29 04:53 | 36.58242 | -78.12465 | 26281 ft | 447 kts | 28° |
| 2026-04-29 04:53 | 36.60729 | -78.10116 | 26775 ft | 450 kts | 28° |
| 2026-04-29 04:54 | 36.63224 | -78.07756 | 27274 ft | 451 kts | 28° |
| 2026-04-29 04:54 | 36.65731 | -78.05383 | 27729 ft | 454 kts | 28° |
| 2026-04-29 04:54 | 36.68253 | -78.02997 | 28115 ft | 458 kts | 27° |
| 2026-04-29 04:54 | 36.70798 | -78.00583 | 28483 ft | 461 kts | 27° |
| 2026-04-29 04:55 | 36.73357 | -77.98157 | 28890 ft | 463 kts | 27° |
| 2026-04-29 04:55 | 36.75926 | -77.95718 | 29323 ft | 464 kts | 27° |
| 2026-04-29 04:55 | 36.78498 | -77.93276 | 29711 ft | 466 kts | 27° |
| 2026-04-29 04:55 | 36.81088 | -77.90815 | 29991 ft | 470 kts | 26° |
| 2026-04-29 04:56 | 36.83717 | -77.88392 | 30247 ft | 470 kts | 24° |
| 2026-04-29 04:56 | 36.86413 | -77.86082 | 30546 ft | 471 kts | 23° |
| 2026-04-29 04:56 | 36.89145 | -77.83815 | 30818 ft | 473 kts | 22° |
| 2026-04-29 04:56 | 36.91901 | -77.81551 | 31073 ft | 475 kts | 22° |
| 2026-04-29 04:57 | 36.94665 | -77.79272 | 31293 ft | 478 kts | 22° |
| 2026-04-29 04:57 | 36.97444 | -77.76958 | 31495 ft | 481 kts | 22° |
| 2026-04-29 04:57 | 37.00228 | -77.74619 | 31741 ft | 483 kts | 22° |
| 2026-04-29 04:57 | 37.03015 | -77.72264 | 31950 ft | 485 kts | 22° |
| 2026-04-29 04:58 | 37.05816 | -77.69889 | 32138 ft | 487 kts | 22° |
| 2026-04-29 04:58 | 37.08621 | -77.67508 | 32376 ft | 488 kts | 22° |
| 2026-04-29 04:58 | 37.11392 | -77.65153 | 32623 ft | 488 kts | 22° |
| 2026-04-29 04:58 | 37.14197 | -77.62767 | 32909 ft | 488 kts | 22° |
| 2026-04-29 04:59 | 37.17006 | -77.60378 | 33145 ft | 488 kts | 22° |
| 2026-04-29 04:59 | 37.19813 | -77.57989 | 33395 ft | 488 kts | 22° |
| 2026-04-29 04:59 | 37.22627 | -77.55594 | 33627 ft | 489 kts | 22° |
| 2026-04-29 04:59 | 37.25438 | -77.53200 | 33907 ft | 488 kts | 22° |
| 2026-04-29 05:00 | 37.28246 | -77.50804 | 34146 ft | 488 kts | 22° |
| 2026-04-29 05:00 | 37.31055 | -77.48408 | 34391 ft | 489 kts | 22° |
| 2026-04-29 05:00 | 37.33868 | -77.46004 | 34648 ft | 488 kts | 22° |
| 2026-04-29 05:00 | 37.36679 | -77.43600 | 34851 ft | 489 kts | 22° |
| 2026-04-29 05:01 | 37.39494 | -77.41190 | 35096 ft | 490 kts | 22° |
| 2026-04-29 05:01 | 37.42305 | -77.38778 | 35363 ft | 489 kts | 22° |
| 2026-04-29 05:01 | 37.45113 | -77.36369 | 35590 ft | 489 kts | 22° |
| 2026-04-29 05:01 | 37.47928 | -77.33956 | 35756 ft | 490 kts | 22° |
| 2026-04-29 05:02 | 37.50740 | -77.31510 | 35969 ft | 494 kts | 24° |
| 2026-04-29 05:02 | 37.53485 | -77.28895 | 36206 ft | 496 kts | 26° |
| 2026-04-29 05:02 | 37.56204 | -77.26215 | 36412 ft | 497 kts | 26° |
| 2026-04-29 05:02 | 37.58928 | -77.23507 | 36532 ft | 499 kts | 26° |
| 2026-04-29 05:03 | 37.61659 | -77.20802 | 36735 ft | 499 kts | 26° |
| 2026-04-29 05:03 | 37.64383 | -77.18120 | 37056 ft | 495 kts | 26° |
| 2026-04-29 05:03 | 37.67110 | -77.15448 | 37115 ft | 497 kts | 26° |
| 2026-04-29 05:04 | 37.72723 | -77.10774 | 37132 ft | 475 kts | 17° |
| 2026-04-29 05:04 | 37.78506 | -77.06847 | 37131 ft | 471 kts | 16° |
| 2026-04-29 05:05 | 37.84289 | -77.02921 | 37139 ft | 472 kts | 16° |
| 2026-04-29 05:05 | 37.90068 | -76.98933 | 37138 ft | 474 kts | 17° |
| 2026-04-29 05:06 | 37.95852 | -76.94907 | 37139 ft | 475 kts | 17° |
| 2026-04-29 05:06 | 38.01641 | -76.90871 | 37138 ft | 475 kts | 17° |
| 2026-04-29 05:07 | 38.07442 | -76.86821 | 37138 ft | 476 kts | 17° |
| 2026-04-29 05:07 | 38.13256 | -76.82755 | 37140 ft | 478 kts | 17° |
| 2026-04-29 05:08 | 38.19081 | -76.78676 | 37134 ft | 479 kts | 17° |
| 2026-04-29 05:08 | 38.24835 | -76.74446 | 37132 ft | 488 kts | 23° |
| 2026-04-29 05:09 | 38.30183 | -76.68924 | 37138 ft | 499 kts | 31° |
| 2026-04-29 05:09 | 38.35410 | -76.63100 | 37139 ft | 498 kts | 30° |
| 2026-04-29 05:10 | 38.40670 | -76.57358 | 37137 ft | 498 kts | 30° |
| 2026-04-29 05:10 | 38.45949 | -76.51655 | 37137 ft | 497 kts | 29° |
| 2026-04-29 05:11 | 38.51242 | -76.45992 | 37132 ft | 497 kts | 30° |
| 2026-04-29 05:11 | 38.56531 | -76.40318 | 37137 ft | 496 kts | 30° |
| 2026-04-29 05:12 | 38.61810 | -76.34632 | 37134 ft | 496 kts | 30° |
| 2026-04-29 05:12 | 38.67052 | -76.28973 | 37129 ft | 496 kts | 30° |
| 2026-04-29 05:13 | 38.72323 | -76.23265 | 37128 ft | 497 kts | 30° |
| 2026-04-29 05:13 | 38.77629 | -76.17511 | 37127 ft | 497 kts | 30° |
| 2026-04-29 05:14 | 38.82866 | -76.11824 | 37129 ft | 496 kts | 30° |
| 2026-04-29 05:14 | 38.88135 | -76.06087 | 37130 ft | 497 kts | 30° |
| 2026-04-29 05:15 | 38.93415 | -76.00327 | 37128 ft | 498 kts | 31° |
| 2026-04-29 05:15 | 38.98674 | -75.94494 | 37132 ft | 502 kts | 34° |
| 2026-04-29 05:16 | 39.03800 | -75.88365 | 37130 ft | 504 kts | 35° |
| 2026-04-29 05:16 | 39.08913 | -75.82185 | 37127 ft | 504 kts | 35° |
| 2026-04-29 05:17 | 39.14048 | -75.76036 | 37122 ft | 504 kts | 35° |
| 2026-04-29 05:17 | 39.19196 | -75.69890 | 37119 ft | 504 kts | 35° |
| 2026-04-29 05:18 | 39.24340 | -75.63735 | 37116 ft | 505 kts | 35° |
| 2026-04-29 05:18 | 39.29479 | -75.57569 | 37122 ft | 504 kts | 36° |
| 2026-04-29 05:19 | 39.34607 | -75.51390 | 37123 ft | 505 kts | 36° |
| 2026-04-29 05:19 | 39.39731 | -75.45183 | 37120 ft | 505 kts | 36° |
| 2026-04-29 05:20 | 39.44845 | -75.38975 | 37128 ft | 504 kts | 36° |
| 2026-04-29 05:20 | 39.49956 | -75.32758 | 37130 ft | 504 kts | 36° |
| 2026-04-29 05:21 | 39.54198 | -75.27590 | 37130 ft | 504 kts | 36° |
| 2026-04-29 05:21 | 39.60132 | -75.20345 | 37129 ft | 504 kts | 37° |
| 2026-04-29 05:22 | 39.65231 | -75.14108 | 37126 ft | 504 kts | 37° |
| 2026-04-29 05:22 | 39.70381 | -75.07937 | 37133 ft | 501 kts | 34° |
| 2026-04-29 05:23 | 39.74820 | -75.03109 | 37133 ft | 501 kts | 33° |
| 2026-04-29 05:23 | 39.80133 | -74.97227 | 37130 ft | 502 kts | 35° |
| 2026-04-29 05:24 | 39.85390 | -74.91235 | 37129 ft | 503 kts | 35° |
| 2026-04-29 05:24 | 39.90687 | -74.85308 | 37129 ft | 499 kts | 31° |
| 2026-04-29 05:25 | 39.96341 | -74.80153 | 37138 ft | 496 kts | 28° |
| 2026-04-29 05:25 | 40.01981 | -74.74959 | 37126 ft | 499 kts | 33° |
| 2026-04-29 05:26 | 40.07058 | -74.68709 | 37139 ft | 505 kts | 44° |
| 2026-04-29 05:26 | 40.11706 | -74.61805 | 37141 ft | 506 kts | 44° |
| 2026-04-29 05:27 | 40.16409 | -74.54968 | 37139 ft | 506 kts | 45° |
| 2026-04-29 05:27 | 40.20416 | -74.47428 | 37136 ft | 512 kts | 59° |
| 2026-04-29 05:27 | 40.21976 | -74.43167 | 37140 ft | 514 kts | 66° |
| 2026-04-29 05:28 | 40.24273 | -74.34383 | 37139 ft | 514 kts | 70° |
| 2026-04-29 05:28 | 40.26531 | -74.25509 | 37148 ft | 514 kts | 70° |
| 2026-04-29 05:29 | 40.28832 | -74.16645 | 37161 ft | 514 kts | 69° |
| 2026-04-29 05:29 | 40.31153 | -74.07803 | 37157 ft | 512 kts | 69° |
| 2026-04-29 05:30 | 40.33444 | -73.98971 | 37160 ft | 511 kts | 70° |
| 2026-04-29 05:30 | 40.35736 | -73.90151 | 37157 ft | 511 kts | 70° |
| 2026-04-29 05:31 | 40.38018 | -73.81316 | 37158 ft | 511 kts | 70° |
| 2026-04-29 05:31 | 40.40296 | -73.72471 | 37164 ft | 512 kts | 70° |
| 2026-04-29 05:32 | 40.42570 | -73.63613 | 37166 ft | 513 kts | 70° |
| 2026-04-29 05:32 | 40.44844 | -73.54744 | 37167 ft | 511 kts | 70° |
| 2026-04-29 05:33 | 40.47090 | -73.45950 | 37168 ft | 511 kts | 70° |
| 2026-04-29 05:33 | 40.49335 | -73.37091 | 37174 ft | 511 kts | 70° |
| 2026-04-29 05:34 | 40.51567 | -73.28262 | 37164 ft | 508 kts | 71° |
| 2026-04-29 05:34 | 40.53791 | -73.19461 | 37162 ft | 508 kts | 71° |
| 2026-04-29 05:35 | 40.56005 | -73.10654 | 37168 ft | 508 kts | 71° |
| 2026-04-29 05:35 | 40.58209 | -73.01845 | 37167 ft | 507 kts | 71° |
| 2026-04-29 05:36 | 40.60407 | -72.93024 | 37161 ft | 508 kts | 71° |
| 2026-04-29 05:36 | 40.62601 | -72.84189 | 37181 ft | 508 kts | 71° |
| 2026-04-29 05:37 | 40.64779 | -72.75341 | 37169 ft | 508 kts | 72° |
| 2026-04-29 05:37 | 40.66962 | -72.66506 | 37172 ft | 507 kts | 72° |
| 2026-04-29 05:38 | 40.69133 | -72.57683 | 37164 ft | 506 kts | 72° |
| 2026-04-29 05:38 | 40.71277 | -72.48850 | 37159 ft | 507 kts | 72° |
| 2026-04-29 05:39 | 40.73424 | -72.40004 | 37167 ft | 507 kts | 72° |
| 2026-04-29 05:39 | 40.75565 | -72.31148 | 37159 ft | 507 kts | 72° |
| 2026-04-29 05:40 | 40.77697 | -72.22284 | 37156 ft | 507 kts | 72° |
| 2026-04-29 05:40 | 40.79919 | -72.13465 | 37148 ft | 506 kts | 70° |
| 2026-04-29 05:41 | 40.82266 | -72.04713 | 37148 ft | 505 kts | 70° |
| 2026-04-29 05:41 | 40.84578 | -71.96022 | 37157 ft | 505 kts | 71° |
| 2026-04-29 05:42 | 40.86871 | -71.87272 | 37157 ft | 504 kts | 71° |
| 2026-04-29 05:42 | 40.89147 | -71.78530 | 37155 ft | 503 kts | 71° |
| 2026-04-29 05:43 | 40.91414 | -71.69800 | 37155 ft | 502 kts | 71° |
| 2026-04-29 05:43 | 40.93675 | -71.61080 | 37147 ft | 501 kts | 71° |
| 2026-04-29 05:44 | 40.95978 | -71.52373 | 37148 ft | 501 kts | 70° |
| 2026-04-29 05:44 | 40.98282 | -71.43668 | 37138 ft | 501 kts | 70° |
| 2026-04-29 05:45 | 41.00558 | -71.34950 | 37139 ft | 501 kts | 72° |
| 2026-04-29 05:45 | 41.02520 | -71.26102 | 37134 ft | 500 kts | 74° |
| 2026-04-29 05:46 | 41.04395 | -71.17227 | 37140 ft | 500 kts | 74° |
| 2026-04-29 05:46 | 41.06306 | -71.08360 | 37130 ft | 501 kts | 74° |
| 2026-04-29 05:47 | 41.08192 | -70.99482 | 37130 ft | 500 kts | 74° |
| 2026-04-29 05:47 | 41.10043 | -70.90594 | 37124 ft | 500 kts | 74° |
| 2026-04-29 05:48 | 41.11883 | -70.81771 | 37117 ft | 500 kts | 74° |
| 2026-04-29 05:48 | 41.13744 | -70.72893 | 37111 ft | 499 kts | 74° |
| 2026-04-29 05:49 | 41.15601 | -70.64025 | 37112 ft | 499 kts | 74° |
| 2026-04-29 05:49 | 41.17445 | -70.55163 | 37112 ft | 498 kts | 74° |
| 2026-04-29 05:50 | 41.19280 | -70.46309 | 37110 ft | 497 kts | 74° |
| 2026-04-29 05:50 | 41.21107 | -70.37452 | 37098 ft | 497 kts | 74° |
| 2026-04-29 05:51 | 41.22927 | -70.28594 | 37084 ft | 497 kts | 74° |
| 2026-04-29 05:51 | 41.24739 | -70.19732 | 37082 ft | 497 kts | 74° |
| 2026-04-29 05:52 | 41.26544 | -70.10872 | 37076 ft | 497 kts | 74° |
| 2026-04-29 05:52 | 41.29072 | -70.02377 | 37069 ft | 494 kts | 59° |
| 2026-04-29 05:53 | 41.33025 | -69.94959 | 37081 ft | 490 kts | 47° |
| 2026-04-29 05:53 | 41.37514 | -69.88137 | 37072 ft | 490 kts | 46° |
| 2026-04-29 05:54 | 41.41997 | -69.81316 | 37079 ft | 489 kts | 47° |
| 2026-04-29 05:54 | 41.46433 | -69.74467 | 37080 ft | 488 kts | 47° |
| 2026-04-29 05:55 | 41.50812 | -69.67647 | 37104 ft | 487 kts | 47° |
| 2026-04-29 05:55 | 41.55216 | -69.60772 | 37090 ft | 488 kts | 47° |
| 2026-04-29 05:56 | 41.59623 | -69.53875 | 37091 ft | 488 kts | 47° |
| 2026-04-29 05:56 | 41.64028 | -69.46968 | 37099 ft | 488 kts | 47° |
| 2026-04-29 05:57 | 41.68428 | -69.40052 | 37085 ft | 489 kts | 47° |
| 2026-04-29 05:57 | 41.72824 | -69.33126 | 37106 ft | 488 kts | 47° |
| 2026-04-29 05:58 | 41.77208 | -69.26206 | 37113 ft | 487 kts | 47° |
| 2026-04-29 05:58 | 41.81579 | -69.19288 | 37112 ft | 486 kts | 47° |
| 2026-04-29 05:59 | 41.85936 | -69.12378 | 37112 ft | 485 kts | 47° |
| 2026-04-29 05:59 | 41.90281 | -69.05469 | 37114 ft | 484 kts | 47° |
| 2026-04-29 06:00 | 41.94610 | -68.98571 | 37117 ft | 482 kts | 47° |
| 2026-04-29 06:00 | 41.98926 | -68.91676 | 37121 ft | 481 kts | 47° |
| 2026-04-29 06:01 | 42.03198 | -68.84838 | 37122 ft | 480 kts | 48° |
| 2026-04-29 06:01 | 42.07487 | -68.77958 | 37119 ft | 479 kts | 48° |
| 2026-04-29 06:02 | 42.11759 | -68.71087 | 37118 ft | 478 kts | 48° |
| 2026-04-29 06:02 | 42.16018 | -68.64219 | 37124 ft | 477 kts | 48° |
| 2026-04-29 06:03 | 42.20264 | -68.57358 | 37129 ft | 476 kts | 48° |
| 2026-04-29 06:03 | 42.24497 | -68.50502 | 37129 ft | 476 kts | 48° |
| 2026-04-29 06:04 | 42.28726 | -68.43639 | 37129 ft | 475 kts | 48° |
| 2026-04-29 06:04 | 42.32948 | -68.36770 | 37138 ft | 475 kts | 48° |
| 2026-04-29 06:05 | 42.37161 | -68.29897 | 37135 ft | 475 kts | 48° |
| 2026-04-29 06:05 | 42.41372 | -68.23017 | 37131 ft | 475 kts | 48° |
| 2026-04-29 06:06 | 42.45577 | -68.16129 | 37140 ft | 475 kts | 48° |
| 2026-04-29 06:06 | 42.49780 | -68.09227 | 37139 ft | 475 kts | 48° |
| 2026-04-29 06:07 | 42.53979 | -68.02315 | 37138 ft | 475 kts | 48° |
| 2026-04-29 06:07 | 42.58173 | -67.95393 | 37138 ft | 475 kts | 48° |
| 2026-04-29 06:08 | 42.62332 | -67.88518 | 37137 ft | 474 kts | 48° |
| 2026-04-29 06:08 | 42.66501 | -67.81608 | 37146 ft | 472 kts | 48° |
| 2026-04-29 06:09 | 42.70657 | -67.74705 | 37157 ft | 471 kts | 48° |
| 2026-04-29 06:09 | 42.74799 | -67.67803 | 37156 ft | 471 kts | 48° |
| 2026-04-29 06:10 | 42.78940 | -67.60891 | 37147 ft | 471 kts | 48° |
| 2026-04-29 06:10 | 42.83117 | -67.53912 | 37137 ft | 481 kts | 49° |
| 2026-04-29 06:11 | 42.87374 | -67.46772 | 37148 ft | 489 kts | 49° |
| 2026-04-29 06:11 | 42.91668 | -67.39544 | 37144 ft | 491 kts | 49° |
| 2026-04-29 06:12 | 42.95950 | -67.32329 | 37137 ft | 492 kts | 49° |
| 2026-04-29 06:12 | 43.00241 | -67.25075 | 37135 ft | 490 kts | 49° |
| 2026-04-29 06:13 | 43.04502 | -67.17859 | 37134 ft | 486 kts | 49° |
| 2026-04-29 06:13 | 43.08731 | -67.10680 | 37135 ft | 483 kts | 49° |
| 2026-04-29 06:14 | 43.12921 | -67.03513 | 37138 ft | 482 kts | 52° |
| 2026-04-29 06:14 | 43.16399 | -66.95658 | 37134 ft | 484 kts | 64° |
| 2026-04-29 06:15 | 43.18571 | -66.88590 | 37142 ft | 485 kts | 66° |
| 2026-04-29 06:15 | 43.21108 | -66.80024 | 37141 ft | 486 kts | 66° |
| 2026-04-29 06:16 | 43.23665 | -66.71435 | 37141 ft | 487 kts | 66° |
| 2026-04-29 06:16 | 43.26243 | -66.62848 | 37138 ft | 487 kts | 66° |
| 2026-04-29 06:17 | 43.28821 | -66.54265 | 37139 ft | 486 kts | 65° |
| 2026-04-29 06:17 | 43.31391 | -66.45681 | 37141 ft | 486 kts | 65° |
| 2026-04-29 06:18 | 43.33950 | -66.37098 | 37137 ft | 485 kts | 65° |
| 2026-04-29 06:18 | 43.36497 | -66.28528 | 37137 ft | 485 kts | 65° |
| 2026-04-29 06:19 | 43.39038 | -66.19951 | 37138 ft | 484 kts | 65° |
| 2026-04-29 06:19 | 43.41566 | -66.11386 | 37137 ft | 483 kts | 65° |
| 2026-04-29 06:20 | 43.44067 | -66.02876 | 37137 ft | 483 kts | 65° |
| 2026-04-29 06:20 | 43.46576 | -65.94314 | 37140 ft | 482 kts | 65° |
| 2026-04-29 06:21 | 43.49080 | -65.85750 | 37137 ft | 482 kts | 65° |
| 2026-04-29 06:21 | 43.51574 | -65.77183 | 37140 ft | 482 kts | 65° |
| 2026-04-29 06:22 | 43.54063 | -65.68601 | 37140 ft | 482 kts | 65° |
| 2026-04-29 06:22 | 43.56545 | -65.60017 | 37149 ft | 482 kts | 65° |
| 2026-04-29 06:23 | 43.59024 | -65.51420 | 37148 ft | 483 kts | 65° |
| 2026-04-29 06:23 | 43.61502 | -65.42800 | 37147 ft | 484 kts | 66° |
| 2026-04-29 06:24 | 43.63973 | -65.34168 | 37150 ft | 483 kts | 66° |
| 2026-04-29 06:24 | 43.66438 | -65.25527 | 37146 ft | 484 kts | 66° |
| 2026-04-29 06:25 | 43.68883 | -65.16929 | 37153 ft | 484 kts | 66° |
| 2026-04-29 06:25 | 43.71337 | -65.08262 | 37158 ft | 484 kts | 66° |
| 2026-04-29 06:26 | 43.73787 | -64.99583 | 37155 ft | 485 kts | 66° |
| 2026-04-29 06:26 | 43.76233 | -64.90891 | 37164 ft | 485 kts | 66° |
| 2026-04-29 06:27 | 43.78673 | -64.82187 | 37207 ft | 485 kts | 66° |
| 2026-04-29 06:27 | 43.81104 | -64.73482 | 37272 ft | 485 kts | 66° |
| 2026-04-29 06:28 | 43.83531 | -64.64764 | 37276 ft | 486 kts | 66° |
| 2026-04-29 06:28 | 43.85957 | -64.56019 | 37270 ft | 487 kts | 66° |
| 2026-04-29 06:29 | 43.88386 | -64.47233 | 37246 ft | 488 kts | 66° |
| 2026-04-29 06:29 | 43.90810 | -64.38424 | 37247 ft | 489 kts | 66° |
| 2026-04-29 06:30 | 43.94420 | -64.25261 | 37253 ft | 489 kts | 66° |
| 2026-04-29 06:31 | 43.96825 | -64.16447 | 37261 ft | 488 kts | 66° |
| 2026-04-29 06:31 | 43.99225 | -64.07624 | 37270 ft | 488 kts | 67° |
| 2026-04-29 06:32 | 44.01614 | -63.98802 | 37278 ft | 488 kts | 67° |
| 2026-04-29 06:32 | 44.03993 | -63.89985 | 37284 ft | 487 kts | 67° |
| 2026-04-29 06:33 | 44.06369 | -63.81155 | 37287 ft | 487 kts | 67° |
| 2026-04-29 06:33 | 44.08736 | -63.72319 | 37296 ft | 488 kts | 67° |
| 2026-04-29 06:34 | 44.11098 | -63.63484 | 37302 ft | 488 kts | 67° |
| 2026-04-29 06:34 | 44.13454 | -63.54629 | 37301 ft | 487 kts | 68° |
| 2026-04-29 06:35 | 44.15799 | -63.45777 | 37307 ft | 487 kts | 68° |
| 2026-04-29 06:35 | 44.18137 | -63.36923 | 37314 ft | 487 kts | 68° |
| 2026-04-29 06:36 | 44.20452 | -63.28118 | 37320 ft | 487 kts | 68° |
| 2026-04-29 06:36 | 44.22774 | -63.19262 | 37323 ft | 486 kts | 68° |
| 2026-04-29 06:37 | 44.25089 | -63.10399 | 37323 ft | 486 kts | 69° |
| 2026-04-29 06:37 | 44.27396 | -63.01527 | 37321 ft | 486 kts | 69° |
| 2026-04-29 06:38 | 44.29694 | -62.92657 | 37320 ft | 486 kts | 69° |
| 2026-04-29 06:38 | 44.31988 | -62.83775 | 37312 ft | 486 kts | 69° |
| 2026-04-29 06:39 | 44.34272 | -62.74893 | 37314 ft | 486 kts | 70° |
| 2026-04-29 06:39 | 44.36550 | -62.66002 | 37312 ft | 486 kts | 70° |
| 2026-04-29 06:40 | 44.38820 | -62.57114 | 37313 ft | 486 kts | 70° |
| 2026-04-29 06:40 | 44.41071 | -62.48261 | 37307 ft | 487 kts | 70° |
| 2026-04-29 06:41 | 44.43333 | -62.39335 | 37303 ft | 487 kts | 70° |
| 2026-04-29 06:41 | 44.45588 | -62.30394 | 37305 ft | 487 kts | 70° |
| 2026-04-29 06:42 | 44.47837 | -62.21440 | 37301 ft | 488 kts | 70° |
| 2026-04-29 06:42 | 44.50084 | -62.12473 | 37294 ft | 488 kts | 71° |
| 2026-04-29 06:43 | 44.52323 | -62.03497 | 37294 ft | 488 kts | 71° |
| 2026-04-29 06:43 | 44.54556 | -61.94513 | 37296 ft | 488 kts | 71° |
| 2026-04-29 06:44 | 44.56779 | -61.85527 | 37294 ft | 487 kts | 71° |
| 2026-04-29 06:44 | 44.58993 | -61.76544 | 37287 ft | 487 kts | 71° |
| 2026-04-29 06:45 | 44.61185 | -61.67615 | 37284 ft | 487 kts | 71° |
| 2026-04-29 06:45 | 44.63383 | -61.58635 | 37288 ft | 487 kts | 71° |
| 2026-04-29 06:46 | 44.65573 | -61.49643 | 37279 ft | 487 kts | 71° |
| 2026-04-29 06:46 | 44.67754 | -61.40645 | 37277 ft | 486 kts | 71° |
| 2026-04-29 06:47 | 44.69929 | -61.31650 | 37278 ft | 486 kts | 71° |
| 2026-04-29 06:47 | 44.72092 | -61.22663 | 37291 ft | 485 kts | 71° |
| 2026-04-29 06:48 | 44.74247 | -61.13672 | 37293 ft | 485 kts | 71° |
| 2026-04-29 06:48 | 44.76381 | -61.04734 | 37296 ft | 485 kts | 72° |
| 2026-04-29 06:49 | 44.78524 | -60.95724 | 37297 ft | 485 kts | 72° |
| 2026-04-29 06:49 | 44.80660 | -60.86708 | 37295 ft | 486 kts | 72° |
| 2026-04-29 06:50 | 44.82790 | -60.77679 | 37295 ft | 486 kts | 72° |
| 2026-04-29 06:50 | 44.84914 | -60.68638 | 37296 ft | 486 kts | 72° |
| 2026-04-29 06:51 | 44.87031 | -60.59587 | 37295 ft | 486 kts | 72° |
| 2026-04-29 06:51 | 44.89141 | -60.50525 | 37293 ft | 486 kts | 72° |
| 2026-04-29 06:52 | 44.91245 | -60.41462 | 37297 ft | 486 kts | 72° |
| 2026-04-29 06:52 | 44.93328 | -60.32448 | 37287 ft | 486 kts | 72° |
| 2026-04-29 06:53 | 44.95417 | -60.23367 | 37286 ft | 486 kts | 72° |
| 2026-04-29 06:53 | 44.97497 | -60.14289 | 37287 ft | 486 kts | 72° |
| 2026-04-29 06:54 | 44.99568 | -60.05217 | 37284 ft | 485 kts | 72° |
| 2026-04-29 06:54 | 45.01631 | -59.96142 | 37287 ft | 485 kts | 72° |
| 2026-04-29 06:55 | 45.03689 | -59.87053 | 37402 ft | 487 kts | 72° |
| 2026-04-29 06:55 | 45.04719 | -59.82488 | 37645 ft | 486 kts | 72° |
| 2026-04-29 06:55 | 45.05742 | -59.77940 | 37919 ft | 484 kts | 72° |
| 2026-04-29 06:55 | 45.06759 | -59.73407 | 38175 ft | 483 kts | 72° |
| 2026-04-29 06:56 | 45.07773 | -59.68881 | 38389 ft | 482 kts | 72° |
| 2026-04-29 06:56 | 45.08785 | -59.64354 | 38580 ft | 482 kts | 72° |
| 2026-04-29 06:56 | 45.09795 | -59.59829 | 38748 ft | 483 kts | 72° |
| 2026-04-29 06:56 | 45.10806 | -59.55296 | 38954 ft | 482 kts | 72° |
| 2026-04-29 06:57 | 45.11813 | -59.50767 | 39155 ft | 482 kts | 72° |
| 2026-04-29 06:57 | 45.13827 | -59.41674 | 39274 ft | 486 kts | 72° |
| 2026-04-29 06:58 | 45.15841 | -59.32543 | 39295 ft | 484 kts | 72° |
| 2026-04-29 06:58 | 45.17837 | -59.23459 | 39304 ft | 481 kts | 72° |
| 2026-04-29 06:59 | 45.19804 | -59.14466 | 39310 ft | 480 kts | 72° |